createdAt,value
2022-09-11T00:02:07.623Z,15.30
2022-09-11T00:05:10.655Z,15.31
2022-09-11T00:08:16.815Z,15.37
2022-09-11T00:11:20.993Z,15.36
2022-09-11T00:14:22.590Z,15.33
2022-09-11T00:17:24.342Z,15.30
2022-09-11T00:20:25.968Z,15.36
2022-09-11T00:23:28.305Z,15.26
2022-09-11T00:26:30.107Z,15.31
2022-09-11T00:29:32.494Z,15.31
2022-09-11T00:32:34.326Z,15.32
2022-09-11T00:35:36.113Z,15.32
2022-09-11T00:38:38.944Z,15.33
2022-09-11T00:41:44.784Z,15.32
2022-09-11T00:44:49.522Z,15.32
2022-09-11T00:47:53.481Z,15.33
2022-09-11T00:50:59.182Z,15.32
2022-09-11T00:54:03.953Z,15.34
2022-09-11T00:57:08.192Z,15.33
2022-09-11T01:00:11.618Z,15.29
2022-09-11T01:03:13.716Z,15.37
2022-09-11T01:06:16.232Z,15.34
2022-09-11T01:09:17.972Z,15.34
2022-09-11T01:12:36.644Z,15.31
2022-09-11T01:15:49.957Z,15.33
2022-09-11T01:18:57.819Z,15.32
2022-09-11T01:22:33.480Z,15.33
2022-09-11T01:25:57.612Z,15.31
2022-09-11T01:29:29.034Z,15.28
2022-09-11T01:32:55.456Z,15.35
2022-09-11T01:36:19.564Z,15.39
2022-09-11T01:39:27.237Z,15.25
2022-09-11T01:42:33.195Z,15.34
2022-09-11T01:45:37.346Z,15.37
2022-09-11T01:48:48.720Z,15.39
2022-09-11T01:51:56.963Z,15.29
2022-09-11T01:55:04.977Z,15.21
2022-09-11T01:58:15.385Z,15.14
2022-09-11T02:01:28.777Z,15.11
2022-09-11T02:04:37.438Z,15.01
2022-09-11T02:07:48.658Z,15.04
2022-09-11T02:10:54.000Z,15.01
2022-09-11T02:14:04.369Z,14.96
2022-09-11T02:17:36.674Z,14.85
2022-09-11T02:20:39.398Z,14.87
2022-09-11T02:23:41.570Z,14.76
2022-09-11T02:26:47.892Z,14.77
2022-09-11T02:29:50.754Z,14.82
2022-09-11T02:32:56.088Z,14.82
2022-09-11T02:36:22.327Z,14.81
2022-09-11T02:40:02.665Z,14.78
2022-09-11T02:43:38.662Z,14.87
2022-09-11T02:46:52.707Z,14.92
2022-09-11T02:49:54.522Z,14.96
2022-09-11T02:53:09.876Z,14.99
2022-09-11T02:56:32.089Z,15.03
2022-09-11T02:59:41.027Z,14.97
2022-09-11T03:02:43.238Z,15.02
2022-09-11T03:05:45.551Z,15.01
2022-09-11T03:08:47.696Z,15.05
2022-09-11T03:11:50.190Z,15.06
2022-09-11T03:14:52.234Z,15.03
2022-09-11T03:17:56.646Z,15.05
2022-09-11T03:20:58.295Z,15.06
2022-09-11T03:24:01.221Z,15.03
2022-09-11T03:27:03.237Z,15.09
2022-09-11T03:30:06.957Z,15.06
2022-09-11T03:33:09.041Z,14.98
2022-09-11T03:36:12.104Z,14.97
2022-09-11T03:39:14.045Z,14.97
2022-09-11T03:42:16.146Z,14.94
2022-09-11T03:45:17.926Z,14.89
2022-09-11T03:48:19.841Z,14.87
2022-09-11T03:51:22.295Z,14.83
2022-09-11T03:54:24.009Z,14.82
2022-09-11T03:57:26.512Z,14.80
2022-09-11T04:00:29.703Z,14.80
2022-09-11T04:03:32.227Z,14.80
2022-09-11T04:06:34.075Z,14.84
2022-09-11T04:09:37.963Z,14.61
2022-09-11T04:12:42.078Z,14.50
2022-09-11T04:15:43.917Z,14.42
2022-09-11T04:18:47.055Z,14.49
2022-09-11T04:21:49.825Z,14.53
2022-09-11T04:24:52.045Z,14.56
2022-09-11T04:27:54.240Z,14.65
2022-09-11T04:30:57.493Z,14.64
2022-09-11T04:33:59.697Z,14.62
2022-09-11T04:37:06.218Z,14.70
2022-09-11T04:40:10.118Z,14.69
2022-09-11T04:43:12.592Z,14.64
2022-09-11T04:46:16.535Z,14.44
2022-09-11T04:49:19.496Z,14.18
2022-09-11T04:52:22.351Z,14.24
2022-09-11T04:55:25.419Z,14.17
2022-09-11T04:58:27.273Z,14.07
2022-09-11T05:01:31.232Z,14.18
2022-09-11T05:04:33.923Z,14.13
2022-09-11T05:07:36.825Z,14.26
2022-09-11T05:10:39.863Z,14.32
2022-09-11T05:13:43.034Z,14.34
2022-09-11T05:16:45.573Z,14.34
2022-09-11T05:19:49.320Z,14.29
2022-09-11T05:22:51.538Z,14.28
2022-09-11T05:25:58.092Z,14.27
2022-09-11T05:29:03.620Z,14.25
2022-09-11T05:32:08.239Z,14.22
2022-09-11T05:35:09.954Z,14.23
2022-09-11T05:38:12.669Z,14.23
2022-09-11T05:41:15.674Z,14.29
2022-09-11T05:44:18.730Z,14.31
2022-09-11T05:47:21.048Z,14.28
2022-09-11T05:50:25.899Z,14.25
2022-09-11T05:53:32.206Z,14.30
2022-09-11T05:56:34.481Z,14.30
2022-09-11T05:59:40.130Z,14.33
2022-09-11T06:02:42.448Z,14.28
2022-09-11T06:05:44.163Z,14.32
2022-09-11T06:08:47.998Z,14.38
2022-09-11T06:11:49.722Z,14.39
2022-09-11T06:14:51.881Z,14.35
2022-09-11T06:17:53.846Z,14.37
2022-09-11T06:21:02.868Z,14.44
2022-09-11T06:24:10.724Z,14.44
2022-09-11T06:27:12.642Z,14.41
2022-09-11T06:30:18.560Z,14.42
2022-09-11T06:33:22.060Z,14.41
2022-09-11T06:36:27.657Z,14.49
2022-09-11T06:39:31.765Z,14.53
2022-09-11T06:42:33.982Z,14.50
2022-09-11T06:45:36.341Z,14.44
2022-09-11T06:48:44.845Z,14.51
2022-09-11T06:51:47.713Z,14.49
2022-09-11T06:54:50.602Z,14.53
2022-09-11T06:57:53.872Z,14.47
2022-09-11T07:01:11.416Z,14.56
2022-09-11T07:04:15.626Z,14.59
2022-09-11T07:07:18.692Z,14.59
2022-09-11T07:10:20.572Z,14.60
2022-09-11T07:13:27.517Z,14.60
2022-09-11T07:16:30.319Z,14.58
2022-09-11T07:19:33.775Z,14.67
2022-09-11T07:22:36.915Z,14.65
2022-09-11T07:25:38.748Z,14.70
2022-09-11T07:28:41.530Z,14.72
2022-09-11T07:31:43.224Z,14.70
2022-09-11T07:34:47.732Z,14.73
2022-09-11T07:37:50.942Z,14.69
2022-09-11T07:40:54.500Z,14.81
2022-09-11T07:44:03.444Z,14.77
2022-09-11T07:47:06.858Z,14.74
2022-09-11T07:50:14.032Z,14.78
2022-09-11T07:53:16.807Z,14.74
2022-09-11T07:56:23.225Z,14.77
2022-09-11T07:59:25.260Z,14.82
2022-09-11T08:02:28.193Z,14.88
2022-09-11T08:05:30.213Z,14.80
2022-09-11T08:08:33.568Z,14.89
2022-09-11T08:11:45.967Z,15.02
2022-09-11T08:14:48.161Z,15.03
2022-09-11T08:17:54.494Z,15.18
2022-09-11T08:21:12.583Z,15.39
2022-09-11T08:24:17.142Z,15.40
2022-09-11T08:27:20.005Z,15.64
2022-09-11T08:30:22.052Z,15.79
2022-09-11T08:33:23.960Z,16.05
2022-09-11T08:36:25.844Z,16.07
2022-09-11T08:39:28.050Z,16.10
2022-09-11T08:42:32.451Z,16.15
2022-09-11T08:45:35.941Z,16.36
2022-09-11T08:48:45.828Z,16.39
2022-09-11T08:51:50.020Z,16.39
2022-09-11T08:54:55.997Z,16.60
2022-09-11T08:58:12.993Z,16.66
2022-09-11T09:01:24.901Z,16.61
2022-09-11T09:04:46.941Z,16.82
2022-09-11T09:08:04.988Z,16.98
2022-09-11T09:11:17.254Z,17.25
2022-09-11T09:14:32.176Z,17.41
2022-09-11T09:17:34.136Z,17.67
2022-09-11T09:20:42.499Z,17.46
2022-09-11T09:23:56.260Z,17.37
2022-09-11T09:26:59.003Z,17.51
2022-09-11T09:30:05.890Z,17.58
2022-09-11T09:33:31.286Z,17.61
2022-09-11T09:36:56.219Z,17.62
2022-09-11T09:40:01.012Z,17.45
2022-09-11T09:43:15.504Z,17.74
2022-09-11T09:46:37.416Z,17.88
2022-09-11T09:49:39.576Z,17.95
2022-09-11T09:52:41.442Z,18.26
2022-09-11T09:55:44.694Z,18.60
2022-09-11T09:59:01.117Z,18.59
2022-09-11T10:02:03.084Z,18.67
2022-09-11T10:05:22.988Z,18.62
2022-09-11T10:08:33.841Z,18.65
2022-09-11T10:11:35.658Z,19.04
2022-09-11T10:14:52.278Z,19.15
2022-09-11T10:18:17.081Z,19.52
2022-09-11T10:21:29.713Z,19.58
2022-09-11T10:24:31.553Z,19.84
2022-09-11T10:27:39.157Z,20.21
2022-09-11T10:30:58.052Z,20.46
2022-09-11T10:34:01.107Z,20.64
2022-09-11T10:37:09.776Z,20.79
2022-09-11T10:40:22.828Z,20.96
2022-09-11T10:43:32.023Z,21.18
2022-09-11T10:46:41.102Z,21.26
2022-09-11T10:49:43.918Z,21.55
2022-09-11T10:52:57.716Z,21.81
2022-09-11T10:56:03.522Z,21.51
2022-09-11T10:59:07.236Z,21.00
2022-09-11T11:02:29.625Z,20.71
2022-09-11T11:05:56.214Z,20.67
2022-09-11T11:09:08.169Z,20.33
2022-09-11T11:12:32.707Z,19.99
2022-09-11T11:15:52.920Z,20.43
2022-09-11T11:19:03.972Z,20.77
2022-09-11T11:22:17.846Z,21.04
2022-09-11T11:25:34.353Z,20.94
2022-09-11T11:29:09.580Z,20.74
2022-09-11T11:32:39.598Z,20.58
2022-09-11T11:36:08.767Z,20.27
2022-09-11T11:39:30.120Z,20.03
2022-09-11T11:42:40.207Z,20.40
2022-09-11T11:45:49.997Z,20.65
2022-09-11T11:49:10.988Z,20.68
2022-09-11T11:52:36.918Z,20.93
2022-09-11T11:56:18.619Z,21.25
2022-09-11T11:59:41.572Z,21.29
2022-09-11T12:02:53.110Z,21.72
2022-09-11T12:05:54.768Z,22.05
2022-09-11T12:08:57.475Z,21.79
2022-09-11T12:12:06.256Z,22.16
2022-09-11T12:15:10.293Z,22.26
2022-09-11T12:18:12.011Z,22.47
2022-09-11T12:21:23.097Z,21.89
2022-09-11T12:25:10.909Z,21.78
2022-09-11T12:28:25.396Z,22.77
2022-09-11T12:31:50.909Z,22.89
2022-09-11T12:35:01.690Z,22.89
2022-09-11T12:38:06.296Z,22.80
2022-09-11T12:41:37.833Z,22.58
2022-09-11T12:44:45.633Z,23.03
2022-09-11T12:47:47.416Z,22.79
2022-09-11T12:50:54.649Z,22.74
2022-09-11T12:54:03.121Z,22.19
2022-09-11T12:57:29.504Z,23.03
2022-09-11T13:00:36.263Z,23.65
2022-09-11T13:03:46.573Z,23.63
2022-09-11T13:07:08.539Z,23.24
2022-09-11T13:10:35.339Z,23.28
2022-09-11T13:13:44.719Z,23.73
2022-09-11T13:17:40.473Z,23.94
2022-09-11T13:20:41.175Z,24.03
2022-09-11T13:23:51.351Z,24.31
2022-09-11T13:26:59.793Z,24.29
2022-09-11T13:30:01.924Z,24.31
2022-09-11T13:33:09.189Z,24.47
2022-09-11T13:36:13.090Z,24.24
2022-09-11T13:39:17.490Z,24.62
2022-09-11T13:42:23.417Z,24.01
2022-09-11T13:45:28.216Z,24.25
2022-09-11T13:48:29.892Z,24.66
2022-09-11T13:51:32.963Z,25.18
2022-09-11T13:54:43.605Z,25.25
2022-09-11T13:58:21.471Z,24.90
2022-09-11T14:01:23.700Z,25.16
2022-09-11T14:04:27.368Z,24.65
2022-09-11T14:07:29.143Z,24.71
2022-09-11T14:10:35.191Z,25.34
2022-09-11T14:13:49.434Z,24.83
2022-09-11T14:17:01.412Z,24.70
2022-09-11T14:20:03.644Z,24.81
2022-09-11T14:23:06.669Z,25.49
2022-09-11T14:26:18.437Z,25.33
2022-09-11T14:29:36.342Z,25.81
2022-09-11T14:32:39.203Z,26.01
2022-09-11T14:36:50.933Z,25.75
2022-09-11T14:39:56.750Z,25.54
2022-09-11T14:42:58.629Z,25.96
2022-09-11T14:46:02.112Z,25.77
2022-09-11T14:49:03.862Z,25.88
2022-09-11T14:52:06.728Z,26.21
2022-09-11T14:55:14.587Z,26.25
2022-09-11T14:58:16.421Z,26.42
2022-09-11T15:01:18.181Z,25.68
2022-09-11T15:04:23.029Z,25.73
2022-09-11T15:07:25.545Z,25.85
2022-09-11T15:10:27.531Z,26.27
2022-09-11T15:13:29.380Z,25.65
2022-09-11T15:16:31.506Z,24.98
2022-09-11T15:19:35.149Z,24.79
2022-09-11T15:22:38.333Z,25.37
2022-09-11T15:25:41.021Z,26.17
2022-09-11T15:28:42.792Z,25.27
2022-09-11T15:31:44.549Z,24.64
2022-09-11T15:34:47.673Z,24.88
2022-09-11T15:37:55.547Z,25.50
2022-09-11T15:40:57.169Z,25.55
2022-09-11T15:43:58.899Z,25.67
2022-09-11T15:47:00.636Z,25.40
2022-09-11T15:50:02.290Z,25.03
2022-09-11T15:53:03.957Z,24.90
2022-09-11T15:56:07.095Z,25.09
2022-09-11T15:59:11.585Z,24.90
2022-09-11T16:02:13.319Z,24.61
2022-09-11T16:05:15.405Z,24.30
2022-09-11T16:08:17.160Z,24.77
2022-09-11T16:11:21.274Z,24.45
2022-09-11T16:14:28.807Z,24.37
2022-09-11T16:17:32.495Z,24.72
2022-09-11T16:20:34.135Z,24.46
2022-09-11T16:23:36.990Z,24.49
2022-09-11T16:26:38.744Z,24.22
2022-09-11T16:33:02.437Z,23.58
2022-09-11T16:36:07.419Z,23.69
2022-09-11T16:39:12.761Z,23.99
2022-09-11T16:42:14.666Z,24.10
2022-09-11T16:45:16.381Z,24.08
2022-09-11T16:48:18.279Z,24.06
2022-09-11T16:51:20.652Z,23.70
2022-09-11T16:54:22.951Z,23.62
2022-09-11T16:57:27.300Z,23.15
2022-09-11T17:00:29.017Z,23.00
2022-09-11T17:03:30.729Z,22.71
2022-09-11T17:06:32.809Z,22.69
2022-09-11T17:09:34.462Z,22.56
2022-09-11T17:12:37.252Z,22.53
2022-09-11T17:15:40.668Z,22.42
2022-09-11T17:18:45.567Z,21.81
2022-09-11T17:21:47.346Z,21.23
2022-09-11T17:24:48.964Z,20.98
2022-09-11T17:27:50.799Z,20.81
2022-09-11T17:30:52.556Z,20.77
2022-09-11T17:33:54.235Z,20.48
2022-09-11T17:36:55.854Z,20.54
2022-09-11T17:39:58.564Z,20.45
2022-09-11T17:43:00.677Z,20.40
2022-09-11T17:46:05.117Z,20.28
2022-09-11T17:49:07.341Z,19.78
2022-09-11T17:52:09.748Z,19.62
2022-09-11T17:55:11.590Z,19.59
2022-09-11T17:58:13.238Z,19.50
2022-09-11T18:01:17.089Z,19.29
2022-09-11T18:04:18.958Z,19.10
2022-09-11T18:07:20.669Z,19.06
2022-09-11T18:10:22.633Z,18.97
2022-09-11T18:13:24.291Z,18.78
2022-09-11T18:16:26.180Z,18.67
2022-09-11T18:19:28.364Z,18.52
2022-09-11T18:22:33.455Z,18.45
2022-09-11T18:25:40.885Z,18.26
2022-09-11T18:32:10.893Z,17.94
2022-09-11T18:35:28.725Z,17.85
2022-09-11T18:38:38.374Z,17.83
2022-09-11T18:42:10.276Z,17.96
2022-09-11T18:45:53.064Z,17.94
2022-09-11T18:49:07.965Z,17.83
2022-09-11T18:52:22.661Z,17.78
2022-09-11T18:55:30.093Z,17.70
2022-09-11T18:58:33.886Z,17.68
2022-09-11T19:01:41.861Z,17.70
2022-09-11T19:04:48.142Z,17.60
2022-09-11T19:08:00.130Z,17.53
2022-09-11T19:11:20.421Z,17.49
2022-09-11T19:14:43.992Z,17.48
2022-09-11T19:18:01.706Z,17.51
2022-09-11T19:21:26.937Z,17.56
2022-09-11T19:24:30.298Z,17.47
2022-09-11T19:27:47.258Z,17.33
2022-09-11T19:30:58.388Z,17.10
2022-09-11T19:34:03.979Z,17.02
2022-09-11T19:37:05.960Z,16.88
2022-09-11T19:40:07.997Z,16.72
2022-09-11T19:43:11.854Z,16.55
2022-09-11T19:46:22.009Z,16.28
2022-09-11T19:49:24.096Z,16.23
2022-09-11T19:52:29.720Z,16.01
2022-09-11T19:55:35.313Z,15.98
2022-09-11T19:58:38.914Z,15.96
2022-09-11T20:01:40.894Z,16.34
2022-09-11T20:04:42.711Z,16.24
2022-09-11T20:07:44.457Z,16.02
2022-09-11T20:10:47.279Z,16.27
2022-09-11T20:13:49.514Z,16.33
2022-09-11T20:16:51.294Z,16.52
2022-09-11T20:19:53.230Z,16.45
2022-09-11T20:23:00.549Z,16.34
2022-09-11T20:26:16.935Z,16.09
2022-09-11T20:29:19.212Z,15.88
2022-09-11T20:32:21.095Z,15.76
2022-09-11T20:35:23.284Z,15.90
2022-09-11T20:38:25.193Z,15.97
2022-09-11T20:41:30.167Z,16.00
2022-09-11T20:44:36.743Z,15.95
2022-09-11T20:47:39.645Z,15.92
2022-09-11T20:50:41.588Z,15.85
2022-09-11T20:53:45.824Z,15.88
2022-09-11T20:56:47.541Z,15.88
2022-09-11T20:59:50.005Z,15.81
2022-09-11T21:02:52.439Z,15.75
2022-09-11T21:05:56.084Z,15.70
2022-09-11T21:09:00.993Z,15.67
2022-09-11T21:12:03.163Z,15.65
2022-09-11T21:15:07.702Z,15.64
2022-09-11T21:18:09.984Z,15.67
2022-09-11T21:21:11.757Z,15.79
2022-09-11T21:24:14.146Z,15.72
2022-09-11T21:27:15.825Z,15.68
2022-09-11T21:30:17.679Z,15.81
2022-09-11T21:33:19.718Z,15.86
2022-09-11T21:36:21.567Z,15.85
2022-09-11T21:39:23.354Z,15.75
2022-09-11T21:42:25.248Z,15.59
2022-09-11T21:45:27.172Z,15.55
2022-09-11T21:48:33.603Z,15.59
2022-09-11T21:51:37.307Z,15.53
2022-09-11T21:54:39.357Z,15.57
2022-09-11T21:57:41.172Z,15.50
2022-09-11T22:00:43.466Z,15.36
2022-09-11T22:03:46.124Z,15.47
2022-09-11T22:06:48.037Z,15.36
2022-09-11T22:09:49.736Z,15.31
2022-09-11T22:12:51.735Z,15.22
2022-09-11T22:15:53.590Z,15.26
2022-09-11T22:18:55.458Z,15.15
2022-09-11T22:21:57.304Z,14.91
2022-09-11T22:24:59.261Z,15.15
2022-09-11T22:28:01.032Z,15.31
2022-09-11T22:31:11.128Z,15.22
2022-09-11T22:34:14.441Z,15.20
2022-09-11T22:37:16.897Z,15.19
2022-09-11T22:40:19.191Z,15.15
2022-09-11T22:43:20.984Z,15.00
2022-09-11T22:46:24.049Z,14.97
2022-09-11T22:49:25.816Z,15.03
2022-09-11T22:52:28.035Z,15.10
2022-09-11T22:55:30.030Z,15.14
2022-09-11T22:58:32.617Z,15.14
2022-09-11T23:01:35.018Z,15.05
2022-09-11T23:04:36.701Z,14.84
2022-09-11T23:07:38.869Z,14.90
2022-09-11T23:10:42.342Z,14.86
2022-09-11T23:13:44.639Z,14.76
2022-09-11T23:16:46.500Z,14.72
2022-09-11T23:19:48.827Z,14.78
2022-09-11T23:22:50.840Z,14.69
2022-09-11T23:25:52.689Z,14.72
2022-09-11T23:28:56.011Z,14.72
2022-09-11T23:31:57.810Z,14.75
2022-09-11T23:34:59.644Z,14.75
2022-09-11T23:38:01.380Z,14.68
2022-09-11T23:41:03.810Z,14.63
2022-09-11T23:44:06.056Z,14.51
2022-09-11T23:47:08.124Z,14.43
2022-09-11T23:50:10.193Z,14.45
2022-09-11T23:53:11.983Z,14.48
2022-09-11T23:56:15.070Z,14.51
2022-09-11T23:59:17.312Z,14.36
